sensor_id;sensor_type;location;lat;lon;timestamp;P1;durP1;ratioP1;P2;durP2;ratioP2
79130;SDS011;70394;45.194;9.142;2023-08-06T00:00:25;1.60;;;0.80;;
79130;SDS011;70394;45.194;9.142;2023-08-06T00:02:51;2.00;;;0.70;;
79130;SDS011;70394;45.194;9.142;2023-08-06T00:05:16;1.38;;;0.70;;
79130;SDS011;70394;45.194;9.142;2023-08-06T00:07:48;1.60;;;0.82;;
79130;SDS011;70394;45.194;9.142;2023-08-06T00:10:14;2.40;;;0.90;;
79130;SDS011;70394;45.194;9.142;2023-08-06T00:12:39;1.85;;;0.70;;
79130;SDS011;70394;45.194;9.142;2023-08-06T00:15:05;2.78;;;1.20;;
79130;SDS011;70394;45.194;9.142;2023-08-06T00:17:31;2.10;;;0.70;;
79130;SDS011;70394;45.194;9.142;2023-08-06T00:19:56;1.83;;;0.73;;
79130;SDS011;70394;45.194;9.142;2023-08-06T00:22:21;2.53;;;0.80;;
79130;SDS011;70394;45.194;9.142;2023-08-06T00:24:47;1.92;;;0.73;;
79130;SDS011;70394;45.194;9.142;2023-08-06T00:27:12;2.78;;;0.93;;
79130;SDS011;70394;45.194;9.142;2023-08-06T00:29:37;2.22;;;0.80;;
79130;SDS011;70394;45.194;9.142;2023-08-06T00:32:03;1.75;;;0.55;;
79130;SDS011;70394;45.194;9.142;2023-08-06T00:34:28;2.20;;;0.70;;
79130;SDS011;70394;45.194;9.142;2023-08-06T00:36:54;1.10;;;0.70;;
79130;SDS011;70394;45.194;9.142;2023-08-06T00:39:19;1.92;;;0.70;;
79130;SDS011;70394;45.194;9.142;2023-08-06T00:41:44;1.88;;;0.80;;
79130;SDS011;70394;45.194;9.142;2023-08-06T00:44:10;2.63;;;0.80;;
79130;SDS011;70394;45.194;9.142;2023-08-06T00:46:35;2.40;;;0.90;;
79130;SDS011;70394;45.194;9.142;2023-08-06T00:49:01;1.52;;;0.70;;
79130;SDS011;70394;45.194;9.142;2023-08-06T00:51:26;1.70;;;0.82;;
79130;SDS011;70394;45.194;9.142;2023-08-06T00:53:52;2.22;;;0.70;;
79130;SDS011;70394;45.194;9.142;2023-08-06T00:56:18;4.13;;;0.93;;
79130;SDS011;70394;45.194;9.142;2023-08-06T00:58:44;2.05;;;0.70;;
79130;SDS011;70394;45.194;9.142;2023-08-06T01:01:10;1.67;;;0.77;;
79130;SDS011;70394;45.194;9.142;2023-08-06T01:03:36;1.58;;;0.70;;
79130;SDS011;70394;45.194;9.142;2023-08-06T01:06:01;1.63;;;0.77;;
79130;SDS011;70394;45.194;9.142;2023-08-06T01:11:27;1.75;;;0.80;;
79130;SDS011;70394;45.194;9.142;2023-08-06T01:16:55;1.63;;;0.80;;
79130;SDS011;70394;45.194;9.142;2023-08-06T01:19:23;1.90;;;0.80;;
79130;SDS011;70394;45.194;9.142;2023-08-06T01:21:49;2.17;;;0.82;;
79130;SDS011;70394;45.194;9.142;2023-08-06T01:24:14;1.85;;;0.80;;
79130;SDS011;70394;45.194;9.142;2023-08-06T01:26:52;1.85;;;0.77;;
79130;SDS011;70394;45.194;9.142;2023-08-06T01:29:34;1.77;;;0.80;;
79130;SDS011;70394;45.194;9.142;2023-08-06T01:32:04;1.45;;;0.77;;
79130;SDS011;70394;45.194;9.142;2023-08-06T01:34:31;2.58;;;0.82;;
79130;SDS011;70394;45.194;9.142;2023-08-06T01:36:59;2.40;;;0.93;;
79130;SDS011;70394;45.194;9.142;2023-08-06T01:39:25;1.83;;;0.80;;
79130;SDS011;70394;45.194;9.142;2023-08-06T01:41:51;2.30;;;0.93;;
79130;SDS011;70394;45.194;9.142;2023-08-06T01:44:16;2.22;;;0.80;;
79130;SDS011;70394;45.194;9.142;2023-08-06T01:46:42;2.42;;;0.90;;
79130;SDS011;70394;45.194;9.142;2023-08-06T01:49:07;1.98;;;1.00;;
79130;SDS011;70394;45.194;9.142;2023-08-06T01:51:32;2.13;;;0.90;;
79130;SDS011;70394;45.194;9.142;2023-08-06T01:53:58;2.50;;;0.90;;
79130;SDS011;70394;45.194;9.142;2023-08-06T01:56:23;1.85;;;1.00;;
79130;SDS011;70394;45.194;9.142;2023-08-06T01:58:49;3.42;;;0.90;;
79130;SDS011;70394;45.194;9.142;2023-08-06T02:01:14;2.22;;;0.90;;
79130;SDS011;70394;45.194;9.142;2023-08-06T02:03:39;2.92;;;1.10;;
79130;SDS011;70394;45.194;9.142;2023-08-06T02:06:05;2.30;;;1.00;;
79130;SDS011;70394;45.194;9.142;2023-08-06T02:08:30;2.75;;;1.00;;
79130;SDS011;70394;45.194;9.142;2023-08-06T02:10:55;2.08;;;1.00;;
79130;SDS011;70394;45.194;9.142;2023-08-06T02:13:22;3.30;;;1.10;;
79130;SDS011;70394;45.194;9.142;2023-08-06T02:15:48;2.05;;;0.85;;
79130;SDS011;70394;45.194;9.142;2023-08-06T02:18:13;2.30;;;0.90;;
79130;SDS011;70394;45.194;9.142;2023-08-06T02:20:40;2.03;;;0.80;;
79130;SDS011;70394;45.194;9.142;2023-08-06T02:23:05;2.53;;;1.00;;
79130;SDS011;70394;45.194;9.142;2023-08-06T02:25:31;2.30;;;0.95;;
79130;SDS011;70394;45.194;9.142;2023-08-06T02:27:56;2.60;;;1.20;;
79130;SDS011;70394;45.194;9.142;2023-08-06T02:30:21;2.40;;;0.98;;
79130;SDS011;70394;45.194;9.142;2023-08-06T02:32:47;2.17;;;0.90;;
79130;SDS011;70394;45.194;9.142;2023-08-06T02:35:12;1.52;;;0.80;;
79130;SDS011;70394;45.194;9.142;2023-08-06T02:37:37;2.08;;;0.90;;
79130;SDS011;70394;45.194;9.142;2023-08-06T02:40:03;1.45;;;0.80;;
79130;SDS011;70394;45.194;9.142;2023-08-06T02:42:28;3.42;;;0.90;;
79130;SDS011;70394;45.194;9.142;2023-08-06T02:44:54;2.03;;;0.90;;
79130;SDS011;70394;45.194;9.142;2023-08-06T02:47:22;3.53;;;0.90;;
79130;SDS011;70394;45.194;9.142;2023-08-06T02:49:48;3.20;;;1.00;;
79130;SDS011;70394;45.194;9.142;2023-08-06T02:52:14;2.75;;;0.82;;
79130;SDS011;70394;45.194;9.142;2023-08-06T02:54:39;2.00;;;0.90;;
79130;SDS011;70394;45.194;9.142;2023-08-06T02:57:05;2.72;;;1.00;;
79130;SDS011;70394;45.194;9.142;2023-08-06T02:59:31;1.75;;;0.98;;
79130;SDS011;70394;45.194;9.142;2023-08-06T03:01:56;1.67;;;0.80;;
79130;SDS011;70394;45.194;9.142;2023-08-06T03:04:22;1.45;;;0.80;;
79130;SDS011;70394;45.194;9.142;2023-08-06T03:06:49;1.75;;;0.73;;
79130;SDS011;70394;45.194;9.142;2023-08-06T03:09:15;1.92;;;0.80;;
79130;SDS011;70394;45.194;9.142;2023-08-06T03:11:40;2.05;;;0.90;;
79130;SDS011;70394;45.194;9.142;2023-08-06T03:14:05;2.05;;;0.85;;
79130;SDS011;70394;45.194;9.142;2023-08-06T03:16:31;3.28;;;0.90;;
79130;SDS011;70394;45.194;9.142;2023-08-06T03:18:56;2.30;;;0.90;;
79130;SDS011;70394;45.194;9.142;2023-08-06T03:21:21;2.90;;;0.93;;
79130;SDS011;70394;45.194;9.142;2023-08-06T03:23:47;3.55;;;1.02;;
79130;SDS011;70394;45.194;9.142;2023-08-06T03:26:13;2.53;;;1.20;;
79130;SDS011;70394;45.194;9.142;2023-08-06T03:28:39;2.40;;;0.90;;
79130;SDS011;70394;45.194;9.142;2023-08-06T03:31:04;2.22;;;0.93;;
79130;SDS011;70394;45.194;9.142;2023-08-06T03:33:30;1.92;;;0.88;;
79130;SDS011;70394;45.194;9.142;2023-08-06T03:35:55;1.55;;;0.80;;
79130;SDS011;70394;45.194;9.142;2023-08-06T03:38:21;2.72;;;0.90;;
79130;SDS011;70394;45.194;9.142;2023-08-06T03:40:47;2.42;;;1.08;;
79130;SDS011;70394;45.194;9.142;2023-08-06T03:43:13;1.92;;;0.90;;
79130;SDS011;70394;45.194;9.142;2023-08-06T03:45:38;2.15;;;1.00;;
79130;SDS011;70394;45.194;9.142;2023-08-06T03:48:03;2.20;;;1.00;;
79130;SDS011;70394;45.194;9.142;2023-08-06T03:50:29;3.70;;;1.00;;
79130;SDS011;70394;45.194;9.142;2023-08-06T03:52:54;3.47;;;0.90;;
79130;SDS011;70394;45.194;9.142;2023-08-06T03:55:20;3.60;;;1.05;;
79130;SDS011;70394;45.194;9.142;2023-08-06T03:57:45;2.80;;;1.00;;
79130;SDS011;70394;45.194;9.142;2023-08-06T04:00:11;2.97;;;1.08;;
79130;SDS011;70394;45.194;9.142;2023-08-06T04:02:37;3.13;;;0.90;;
79130;SDS011;70394;45.194;9.142;2023-08-06T04:05:03;3.75;;;1.08;;
79130;SDS011;70394;45.194;9.142;2023-08-06T04:07:28;3.55;;;1.20;;
79130;SDS011;70394;45.194;9.142;2023-08-06T04:09:57;3.42;;;1.20;;
79130;SDS011;70394;45.194;9.142;2023-08-06T04:12:25;2.78;;;1.00;;
79130;SDS011;70394;45.194;9.142;2023-08-06T04:14:52;3.10;;;1.20;;
79130;SDS011;70394;45.194;9.142;2023-08-06T04:17:18;2.00;;;1.00;;
79130;SDS011;70394;45.194;9.142;2023-08-06T04:19:46;2.40;;;1.00;;
79130;SDS011;70394;45.194;9.142;2023-08-06T04:22:15;2.08;;;1.10;;
79130;SDS011;70394;45.194;9.142;2023-08-06T04:24:41;3.33;;;1.20;;
79130;SDS011;70394;45.194;9.142;2023-08-06T04:27:07;2.40;;;1.10;;
79130;SDS011;70394;45.194;9.142;2023-08-06T04:29:33;2.53;;;1.05;;
79130;SDS011;70394;45.194;9.142;2023-08-06T04:31:58;2.80;;;1.10;;
79130;SDS011;70394;45.194;9.142;2023-08-06T04:34:24;4.72;;;1.20;;
79130;SDS011;70394;45.194;9.142;2023-08-06T04:36:49;2.90;;;1.25;;
79130;SDS011;70394;45.194;9.142;2023-08-06T04:39:14;2.40;;;1.02;;
79130;SDS011;70394;45.194;9.142;2023-08-06T04:41:40;1.98;;;1.00;;
79130;SDS011;70394;45.194;9.142;2023-08-06T04:44:05;3.42;;;1.40;;
79130;SDS011;70394;45.194;9.142;2023-08-06T04:46:31;2.55;;;1.10;;
79130;SDS011;70394;45.194;9.142;2023-08-06T04:48:56;2.15;;;0.88;;
79130;SDS011;70394;45.194;9.142;2023-08-06T04:51:21;4.00;;;1.20;;
79130;SDS011;70394;45.194;9.142;2023-08-06T04:53:47;2.58;;;1.00;;
79130;SDS011;70394;45.194;9.142;2023-08-06T04:56:12;2.15;;;0.80;;
79130;SDS011;70394;45.194;9.142;2023-08-06T04:58:37;2.50;;;1.20;;
79130;SDS011;70394;45.194;9.142;2023-08-06T05:01:03;2.70;;;1.00;;
79130;SDS011;70394;45.194;9.142;2023-08-06T05:03:28;2.10;;;0.90;;
79130;SDS011;70394;45.194;9.142;2023-08-06T05:05:53;2.55;;;0.90;;
79130;SDS011;70394;45.194;9.142;2023-08-06T05:08:19;2.53;;;1.20;;
79130;SDS011;70394;45.194;9.142;2023-08-06T05:10:44;2.90;;;1.05;;
79130;SDS011;70394;45.194;9.142;2023-08-06T05:13:10;2.70;;;0.80;;
79130;SDS011;70394;45.194;9.142;2023-08-06T05:15:36;2.35;;;1.10;;
79130;SDS011;70394;45.194;9.142;2023-08-06T05:18:02;3.80;;;1.05;;
79130;SDS011;70394;45.194;9.142;2023-08-06T05:20:27;3.22;;;1.13;;
79130;SDS011;70394;45.194;9.142;2023-08-06T05:22:53;2.50;;;1.10;;
79130;SDS011;70394;45.194;9.142;2023-08-06T05:25:18;4.07;;;1.17;;
79130;SDS011;70394;45.194;9.142;2023-08-06T05:27:43;2.60;;;1.25;;
79130;SDS011;70394;45.194;9.142;2023-08-06T05:30:09;3.65;;;1.00;;
79130;SDS011;70394;45.194;9.142;2023-08-06T05:32:35;3.33;;;1.20;;
79130;SDS011;70394;45.194;9.142;2023-08-06T05:35:00;2.35;;;0.90;;
79130;SDS011;70394;45.194;9.142;2023-08-06T05:37:26;2.00;;;1.00;;
79130;SDS011;70394;45.194;9.142;2023-08-06T05:39:51;3.15;;;0.82;;
79130;SDS011;70394;45.194;9.142;2023-08-06T05:42:16;3.22;;;1.52;;
79130;SDS011;70394;45.194;9.142;2023-08-06T05:44:42;3.53;;;1.55;;
79130;SDS011;70394;45.194;9.142;2023-08-06T05:47:07;3.33;;;1.50;;
79130;SDS011;70394;45.194;9.142;2023-08-06T05:49:33;3.65;;;1.63;;
79130;SDS011;70394;45.194;9.142;2023-08-06T05:51:58;3.47;;;1.50;;
79130;SDS011;70394;45.194;9.142;2023-08-06T05:54:24;3.35;;;1.67;;
79130;SDS011;70394;45.194;9.142;2023-08-06T05:56:49;3.47;;;1.52;;
79130;SDS011;70394;45.194;9.142;2023-08-06T05:59:15;3.30;;;1.42;;
79130;SDS011;70394;45.194;9.142;2023-08-06T06:01:40;3.75;;;1.50;;
79130;SDS011;70394;45.194;9.142;2023-08-06T06:04:06;4.40;;;1.98;;
79130;SDS011;70394;45.194;9.142;2023-08-06T06:23:15;4.45;;;1.70;;
79130;SDS011;70394;45.194;9.142;2023-08-06T06:25:46;3.75;;;2.20;;
79130;SDS011;70394;45.194;9.142;2023-08-06T06:28:13;2.95;;;1.58;;
79130;SDS011;70394;45.194;9.142;2023-08-06T06:30:38;40.50;;;4.20;;
79130;SDS011;70394;45.194;9.142;2023-08-06T06:33:03;5.47;;;1.85;;
79130;SDS011;70394;45.194;9.142;2023-08-06T06:35:29;3.53;;;1.73;;
79130;SDS011;70394;45.194;9.142;2023-08-06T06:37:54;6.07;;;2.30;;
79130;SDS011;70394;45.194;9.142;2023-08-06T06:40:20;3.20;;;1.83;;
79130;SDS011;70394;45.194;9.142;2023-08-06T06:42:45;4.28;;;1.80;;
79130;SDS011;70394;45.194;9.142;2023-08-06T06:45:10;4.70;;;1.73;;
79130;SDS011;70394;45.194;9.142;2023-08-06T06:47:36;8.30;;;1.85;;
79130;SDS011;70394;45.194;9.142;2023-08-06T06:50:01;4.03;;;1.90;;
79130;SDS011;70394;45.194;9.142;2023-08-06T06:52:27;5.25;;;1.70;;
79130;SDS011;70394;45.194;9.142;2023-08-06T06:54:52;4.45;;;1.80;;
79130;SDS011;70394;45.194;9.142;2023-08-06T06:57:17;3.15;;;1.83;;
79130;SDS011;70394;45.194;9.142;2023-08-06T06:59:43;3.70;;;1.40;;
79130;SDS011;70394;45.194;9.142;2023-08-06T07:02:08;31.08;;;3.80;;
79130;SDS011;70394;45.194;9.142;2023-08-06T07:04:33;9.85;;;2.47;;
79130;SDS011;70394;45.194;9.142;2023-08-06T07:06:59;7.07;;;1.95;;
79130;SDS011;70394;45.194;9.142;2023-08-06T07:09:24;6.20;;;1.90;;
79130;SDS011;70394;45.194;9.142;2023-08-06T07:11:49;7.43;;;1.70;;
79130;SDS011;70394;45.194;9.142;2023-08-06T07:14:15;4.93;;;1.65;;
79130;SDS011;70394;45.194;9.142;2023-08-06T07:16:40;4.15;;;1.90;;
79130;SDS011;70394;45.194;9.142;2023-08-06T07:19:05;4.70;;;2.08;;
79130;SDS011;70394;45.194;9.142;2023-08-06T07:21:31;3.80;;;1.63;;
79130;SDS011;70394;45.194;9.142;2023-08-06T07:23:57;4.20;;;1.77;;
79130;SDS011;70394;45.194;9.142;2023-08-06T07:26:24;5.22;;;1.98;;
79130;SDS011;70394;45.194;9.142;2023-08-06T07:28:49;3.70;;;1.48;;
79130;SDS011;70394;45.194;9.142;2023-08-06T07:31:15;4.07;;;1.50;;
79130;SDS011;70394;45.194;9.142;2023-08-06T07:33:40;3.30;;;1.63;;
79130;SDS011;70394;45.194;9.142;2023-08-06T07:36:12;6.75;;;1.73;;
79130;SDS011;70394;45.194;9.142;2023-08-06T07:38:38;4.82;;;1.80;;
79130;SDS011;70394;45.194;9.142;2023-08-06T07:41:04;5.25;;;1.60;;
79130;SDS011;70394;45.194;9.142;2023-08-06T07:43:30;4.75;;;1.80;;
79130;SDS011;70394;45.194;9.142;2023-08-06T07:45:57;3.58;;;1.73;;
79130;SDS011;70394;45.194;9.142;2023-08-06T07:48:26;3.97;;;1.95;;
79130;SDS011;70394;45.194;9.142;2023-08-06T07:50:53;3.17;;;1.55;;
79130;SDS011;70394;45.194;9.142;2023-08-06T07:53:20;3.83;;;1.80;;
79130;SDS011;70394;45.194;9.142;2023-08-06T07:55:52;3.20;;;1.58;;
79130;SDS011;70394;45.194;9.142;2023-08-06T07:58:20;4.50;;;1.50;;
79130;SDS011;70394;45.194;9.142;2023-08-06T08:00:46;4.28;;;1.75;;
79130;SDS011;70394;45.194;9.142;2023-08-06T08:03:12;4.28;;;1.55;;
79130;SDS011;70394;45.194;9.142;2023-08-06T08:05:39;4.70;;;1.55;;
79130;SDS011;70394;45.194;9.142;2023-08-06T08:08:05;3.47;;;1.60;;
79130;SDS011;70394;45.194;9.142;2023-08-06T08:10:30;3.05;;;1.70;;
79130;SDS011;70394;45.194;9.142;2023-08-06T08:12:56;4.15;;;1.67;;
79130;SDS011;70394;45.194;9.142;2023-08-06T08:15:21;3.47;;;1.63;;
79130;SDS011;70394;45.194;9.142;2023-08-06T08:17:47;3.33;;;1.70;;
79130;SDS011;70394;45.194;9.142;2023-08-06T08:20:13;3.78;;;1.30;;
79130;SDS011;70394;45.194;9.142;2023-08-06T08:22:38;4.25;;;1.35;;
79130;SDS011;70394;45.194;9.142;2023-08-06T08:25:04;3.53;;;1.50;;
79130;SDS011;70394;45.194;9.142;2023-08-06T08:27:30;5.45;;;1.45;;
79130;SDS011;70394;45.194;9.142;2023-08-06T08:29:55;3.80;;;1.45;;
79130;SDS011;70394;45.194;9.142;2023-08-06T08:32:21;3.70;;;1.33;;
79130;SDS011;70394;45.194;9.142;2023-08-06T08:34:46;2.90;;;1.40;;
79130;SDS011;70394;45.194;9.142;2023-08-06T08:37:12;3.53;;;1.40;;
79130;SDS011;70394;45.194;9.142;2023-08-06T08:39:38;2.80;;;1.17;;
79130;SDS011;70394;45.194;9.142;2023-08-06T08:42:03;2.75;;;1.25;;
79130;SDS011;70394;45.194;9.142;2023-08-06T08:44:29;3.28;;;1.38;;
79130;SDS011;70394;45.194;9.142;2023-08-06T08:46:57;2.80;;;1.20;;
79130;SDS011;70394;45.194;9.142;2023-08-06T08:49:23;2.90;;;1.30;;
79130;SDS011;70394;45.194;9.142;2023-08-06T08:51:49;2.65;;;1.20;;
79130;SDS011;70394;45.194;9.142;2023-08-06T08:54:17;3.08;;;1.35;;
79130;SDS011;70394;45.194;9.142;2023-08-06T08:56:45;3.15;;;1.40;;
79130;SDS011;70394;45.194;9.142;2023-08-06T08:59:10;4.05;;;1.30;;
79130;SDS011;70394;45.194;9.142;2023-08-06T09:01:36;6.30;;;1.20;;
79130;SDS011;70394;45.194;9.142;2023-08-06T09:04:03;3.85;;;1.63;;
79130;SDS011;70394;45.194;9.142;2023-08-06T09:06:30;2.88;;;1.35;;
79130;SDS011;70394;45.194;9.142;2023-08-06T09:09:04;3.67;;;1.50;;
79130;SDS011;70394;45.194;9.142;2023-08-06T09:11:34;5.05;;;1.15;;
79130;SDS011;70394;45.194;9.142;2023-08-06T09:14:08;5.43;;;1.58;;
79130;SDS011;70394;45.194;9.142;2023-08-06T09:16:34;4.05;;;1.40;;
79130;SDS011;70394;45.194;9.142;2023-08-06T09:19:06;5.65;;;1.23;;
79130;SDS011;70394;45.194;9.142;2023-08-06T09:21:32;3.97;;;1.33;;
79130;SDS011;70394;45.194;9.142;2023-08-06T09:24:01;3.10;;;1.30;;
79130;SDS011;70394;45.194;9.142;2023-08-06T09:26:32;6.30;;;1.50;;
79130;SDS011;70394;45.194;9.142;2023-08-06T09:28:59;5.70;;;1.40;;
79130;SDS011;70394;45.194;9.142;2023-08-06T09:31:25;3.58;;;1.15;;
79130;SDS011;70394;45.194;9.142;2023-08-06T09:33:59;3.90;;;1.30;;
79130;SDS011;70394;45.194;9.142;2023-08-06T09:36:25;5.45;;;1.50;;
79130;SDS011;70394;45.194;9.142;2023-08-06T09:38:52;3.47;;;1.40;;
79130;SDS011;70394;45.194;9.142;2023-08-06T09:41:27;3.80;;;1.55;;
79130;SDS011;70394;45.194;9.142;2023-08-06T09:43:53;5.43;;;1.38;;
79130;SDS011;70394;45.194;9.142;2023-08-06T09:46:19;2.67;;;1.30;;
79130;SDS011;70394;45.194;9.142;2023-08-06T09:48:45;2.83;;;1.20;;
79130;SDS011;70394;45.194;9.142;2023-08-06T09:51:11;4.15;;;1.30;;
79130;SDS011;70394;45.194;9.142;2023-08-06T09:53:38;3.03;;;1.30;;
79130;SDS011;70394;45.194;9.142;2023-08-06T09:56:06;3.63;;;1.20;;
79130;SDS011;70394;45.194;9.142;2023-08-06T09:58:32;5.47;;;2.38;;
79130;SDS011;70394;45.194;9.142;2023-08-06T10:00:58;3.65;;;1.10;;
79130;SDS011;70394;45.194;9.142;2023-08-06T10:03:24;3.30;;;1.55;;
79130;SDS011;70394;45.194;9.142;2023-08-06T10:05:50;2.60;;;1.25;;
79130;SDS011;70394;45.194;9.142;2023-08-06T10:08:16;2.30;;;1.10;;
79130;SDS011;70394;45.194;9.142;2023-08-06T10:10:42;2.88;;;1.17;;
79130;SDS011;70394;45.194;9.142;2023-08-06T10:13:08;3.42;;;1.20;;
79130;SDS011;70394;45.194;9.142;2023-08-06T10:15:35;3.55;;;1.30;;
79130;SDS011;70394;45.194;9.142;2023-08-06T10:18:03;4.10;;;1.30;;
79130;SDS011;70394;45.194;9.142;2023-08-06T10:20:34;2.72;;;1.20;;
79130;SDS011;70394;45.194;9.142;2023-08-06T10:23:06;3.53;;;1.38;;
79130;SDS011;70394;45.194;9.142;2023-08-06T10:25:33;2.72;;;1.30;;
79130;SDS011;70394;45.194;9.142;2023-08-06T10:28:00;2.33;;;1.10;;
79130;SDS011;70394;45.194;9.142;2023-08-06T10:30:32;3.33;;;1.20;;
79130;SDS011;70394;45.194;9.142;2023-08-06T10:32:59;5.32;;;1.35;;
79130;SDS011;70394;45.194;9.142;2023-08-06T10:35:29;3.10;;;1.30;;
79130;SDS011;70394;45.194;9.142;2023-08-06T10:38:04;2.50;;;1.10;;
79130;SDS011;70394;45.194;9.142;2023-08-06T10:40:49;3.60;;;1.05;;
79130;SDS011;70394;45.194;9.142;2023-08-06T10:43:29;2.63;;;1.33;;
79130;SDS011;70394;45.194;9.142;2023-08-06T10:46:11;2.78;;;1.20;;
79130;SDS011;70394;45.194;9.142;2023-08-06T10:48:47;1.83;;;1.00;;
79130;SDS011;70394;45.194;9.142;2023-08-06T10:51:13;2.95;;;1.10;;
79130;SDS011;70394;45.194;9.142;2023-08-06T10:53:46;2.28;;;1.00;;
79130;SDS011;70394;45.194;9.142;2023-08-06T10:56:13;1.80;;;0.90;;
79130;SDS011;70394;45.194;9.142;2023-08-06T10:58:50;3.42;;;1.20;;
79130;SDS011;70394;45.194;9.142;2023-08-06T11:01:18;2.28;;;1.10;;
79130;SDS011;70394;45.194;9.142;2023-08-06T11:03:45;2.17;;;1.02;;
79130;SDS011;70394;45.194;9.142;2023-08-06T11:06:16;2.47;;;1.05;;
79130;SDS011;70394;45.194;9.142;2023-08-06T11:08:48;3.47;;;1.20;;
79130;SDS011;70394;45.194;9.142;2023-08-06T11:11:16;2.90;;;1.10;;
79130;SDS011;70394;45.194;9.142;2023-08-06T11:13:42;2.80;;;1.20;;
79130;SDS011;70394;45.194;9.142;2023-08-06T11:16:11;3.00;;;1.15;;
79130;SDS011;70394;45.194;9.142;2023-08-06T11:18:37;3.28;;;1.40;;
79130;SDS011;70394;45.194;9.142;2023-08-06T11:21:02;4.43;;;1.08;;
79130;SDS011;70394;45.194;9.142;2023-08-06T11:23:28;3.50;;;1.20;;
79130;SDS011;70394;45.194;9.142;2023-08-06T11:25:54;2.95;;;0.90;;
79130;SDS011;70394;45.194;9.142;2023-08-06T11:28:21;2.55;;;1.27;;
79130;SDS011;70394;45.194;9.142;2023-08-06T11:30:47;2.78;;;1.10;;
79130;SDS011;70394;45.194;9.142;2023-08-06T11:33:13;2.50;;;1.00;;
79130;SDS011;70394;45.194;9.142;2023-08-06T11:35:38;3.45;;;1.38;;
79130;SDS011;70394;45.194;9.142;2023-08-06T11:38:04;3.72;;;1.35;;
79130;SDS011;70394;45.194;9.142;2023-08-06T11:40:31;6.00;;;1.40;;
79130;SDS011;70394;45.194;9.142;2023-08-06T11:42:58;5.68;;;1.20;;
79130;SDS011;70394;45.194;9.142;2023-08-06T11:45:23;3.10;;;1.50;;
79130;SDS011;70394;45.194;9.142;2023-08-06T11:47:50;4.70;;;1.30;;
79130;SDS011;70394;45.194;9.142;2023-08-06T11:50:25;4.25;;;1.48;;
79130;SDS011;70394;45.194;9.142;2023-08-06T11:52:58;3.05;;;1.30;;
79130;SDS011;70394;45.194;9.142;2023-08-06T11:55:25;2.80;;;1.15;;
79130;SDS011;70394;45.194;9.142;2023-08-06T11:57:53;3.55;;;1.38;;
79130;SDS011;70394;45.194;9.142;2023-08-06T12:00:19;3.05;;;1.30;;
79130;SDS011;70394;45.194;9.142;2023-08-06T12:02:47;3.63;;;1.20;;
79130;SDS011;70394;45.194;9.142;2023-08-06T12:05:16;2.60;;;1.23;;
79130;SDS011;70394;45.194;9.142;2023-08-06T12:07:44;2.65;;;1.30;;
79130;SDS011;70394;45.194;9.142;2023-08-06T12:10:13;2.70;;;1.30;;
79130;SDS011;70394;45.194;9.142;2023-08-06T12:12:39;3.53;;;1.23;;
79130;SDS011;70394;45.194;9.142;2023-08-06T12:15:05;2.28;;;1.10;;
79130;SDS011;70394;45.194;9.142;2023-08-06T12:17:32;2.28;;;1.20;;
79130;SDS011;70394;45.194;9.142;2023-08-06T12:19:58;2.60;;;1.20;;
79130;SDS011;70394;45.194;9.142;2023-08-06T12:22:23;2.65;;;1.30;;
79130;SDS011;70394;45.194;9.142;2023-08-06T12:24:48;2.05;;;1.00;;
79130;SDS011;70394;45.194;9.142;2023-08-06T12:27:14;2.60;;;1.20;;
79130;SDS011;70394;45.194;9.142;2023-08-06T12:29:45;3.70;;;1.20;;
79130;SDS011;70394;45.194;9.142;2023-08-06T12:32:12;3.67;;;1.20;;
79130;SDS011;70394;45.194;9.142;2023-08-06T12:34:41;2.80;;;1.40;;
79130;SDS011;70394;45.194;9.142;2023-08-06T12:37:07;2.92;;;1.10;;
79130;SDS011;70394;45.194;9.142;2023-08-06T12:39:34;1.85;;;1.00;;
79130;SDS011;70394;45.194;9.142;2023-08-06T12:42:00;2.50;;;1.00;;
79130;SDS011;70394;45.194;9.142;2023-08-06T12:44:26;2.60;;;1.00;;
79130;SDS011;70394;45.194;9.142;2023-08-06T12:46:52;2.13;;;1.00;;
79130;SDS011;70394;45.194;9.142;2023-08-06T12:49:18;2.80;;;1.13;;
79130;SDS011;70394;45.194;9.142;2023-08-06T12:51:46;3.53;;;1.30;;
79130;SDS011;70394;45.194;9.142;2023-08-06T12:54:11;2.72;;;1.10;;
79130;SDS011;70394;45.194;9.142;2023-08-06T12:56:37;2.97;;;1.10;;
79130;SDS011;70394;45.194;9.142;2023-08-06T12:59:02;3.10;;;1.05;;
79130;SDS011;70394;45.194;9.142;2023-08-06T13:01:27;3.45;;;1.27;;
79130;SDS011;70394;45.194;9.142;2023-08-06T13:03:53;2.53;;;1.15;;
79130;SDS011;70394;45.194;9.142;2023-08-06T13:06:18;3.05;;;1.17;;
79130;SDS011;70394;45.194;9.142;2023-08-06T13:08:43;2.95;;;1.17;;
79130;SDS011;70394;45.194;9.142;2023-08-06T13:11:09;2.65;;;1.13;;
79130;SDS011;70394;45.194;9.142;2023-08-06T13:13:35;2.80;;;1.10;;
79130;SDS011;70394;45.194;9.142;2023-08-06T13:16:00;2.03;;;0.90;;
79130;SDS011;70394;45.194;9.142;2023-08-06T13:18:26;2.10;;;0.80;;
79130;SDS011;70394;45.194;9.142;2023-08-06T13:20:55;2.60;;;1.10;;
79130;SDS011;70394;45.194;9.142;2023-08-06T13:23:20;2.30;;;1.15;;
79130;SDS011;70394;45.194;9.142;2023-08-06T13:25:46;2.95;;;1.20;;
79130;SDS011;70394;45.194;9.142;2023-08-06T13:28:11;2.05;;;0.95;;
79130;SDS011;70394;45.194;9.142;2023-08-06T13:30:38;2.63;;;1.30;;
79130;SDS011;70394;45.194;9.142;2023-08-06T13:33:07;3.05;;;1.15;;
79130;SDS011;70394;45.194;9.142;2023-08-06T13:35:33;2.97;;;1.00;;
79130;SDS011;70394;45.194;9.142;2023-08-06T13:37:59;2.65;;;1.10;;
79130;SDS011;70394;45.194;9.142;2023-08-06T13:40:24;2.30;;;0.82;;
79130;SDS011;70394;45.194;9.142;2023-08-06T13:42:50;1.58;;;0.80;;
79130;SDS011;70394;45.194;9.142;2023-08-06T13:45:15;1.85;;;0.93;;
79130;SDS011;70394;45.194;9.142;2023-08-06T13:47:41;2.58;;;1.20;;
79130;SDS011;70394;45.194;9.142;2023-08-06T13:50:06;1.90;;;0.90;;
79130;SDS011;70394;45.194;9.142;2023-08-06T13:52:32;2.40;;;1.00;;
79130;SDS011;70394;45.194;9.142;2023-08-06T13:54:57;2.30;;;1.00;;
79130;SDS011;70394;45.194;9.142;2023-08-06T13:57:22;2.83;;;0.90;;
79130;SDS011;70394;45.194;9.142;2023-08-06T13:59:48;2.15;;;0.90;;
79130;SDS011;70394;45.194;9.142;2023-08-06T14:02:13;2.00;;;1.05;;
79130;SDS011;70394;45.194;9.142;2023-08-06T14:04:39;2.20;;;1.00;;
79130;SDS011;70394;45.194;9.142;2023-08-06T14:07:05;2.42;;;1.00;;
79130;SDS011;70394;45.194;9.142;2023-08-06T14:09:30;3.00;;;0.98;;
79130;SDS011;70394;45.194;9.142;2023-08-06T14:11:56;1.73;;;0.90;;
79130;SDS011;70394;45.194;9.142;2023-08-06T14:14:21;2.10;;;1.00;;
79130;SDS011;70394;45.194;9.142;2023-08-06T14:16:51;2.00;;;0.90;;
79130;SDS011;70394;45.194;9.142;2023-08-06T14:19:17;2.58;;;1.10;;
79130;SDS011;70394;45.194;9.142;2023-08-06T14:21:42;2.80;;;0.95;;
79130;SDS011;70394;45.194;9.142;2023-08-06T14:24:07;2.45;;;1.10;;
79130;SDS011;70394;45.194;9.142;2023-08-06T14:26:33;2.35;;;1.10;;
79130;SDS011;70394;45.194;9.142;2023-08-06T14:28:58;2.00;;;1.00;;
79130;SDS011;70394;45.194;9.142;2023-08-06T14:31:23;2.50;;;1.35;;
79130;SDS011;70394;45.194;9.142;2023-08-06T14:33:49;2.40;;;0.98;;
79130;SDS011;70394;45.194;9.142;2023-08-06T14:36:14;1.90;;;0.90;;
79130;SDS011;70394;45.194;9.142;2023-08-06T14:38:40;3.08;;;1.10;;
79130;SDS011;70394;45.194;9.142;2023-08-06T14:41:05;2.80;;;1.00;;
79130;SDS011;70394;45.194;9.142;2023-08-06T14:43:31;2.30;;;0.90;;
79130;SDS011;70394;45.194;9.142;2023-08-06T14:45:56;2.03;;;1.05;;
79130;SDS011;70394;45.194;9.142;2023-08-06T14:48:22;2.50;;;1.00;;
79130;SDS011;70394;45.194;9.142;2023-08-06T14:50:47;3.42;;;1.02;;
79130;SDS011;70394;45.194;9.142;2023-08-06T14:53:13;2.80;;;0.90;;
79130;SDS011;70394;45.194;9.142;2023-08-06T14:55:38;2.47;;;0.90;;
79130;SDS011;70394;45.194;9.142;2023-08-06T14:58:03;2.58;;;0.90;;
79130;SDS011;70394;45.194;9.142;2023-08-06T15:00:29;1.70;;;0.90;;
79130;SDS011;70394;45.194;9.142;2023-08-06T15:02:55;2.00;;;0.90;;
79130;SDS011;70394;45.194;9.142;2023-08-06T15:05:20;2.58;;;0.93;;